Go Pro

NIKE (NKE) Institutional Ownership

NIKE logo
$38.39 -0.38 (-0.98%)
As of 09/4/2026 03:58 PM Eastern

Institutional Ownership Changes (13F Filings) for NIKE (NYSE:NKE)

Current
Institutional Ownership
Percentage
64.25%
Number of
Institutional Buyers
(last 12 months)
1163
Total
Institutional Inflows
(last 12 months)
$15.03B
Number of
Institutional Sellers
(last 12 months)
1008
Total
Institutional Outflows
(last 12 months)
$7.31B
Get NKE Insider Trade Alerts

Want to know when executives and insiders are buying or selling NIKE stock? Sign up for InsiderTrades.com's daily newsletter to get the latest insider transactions delivered to your inbox daily.

SMS is currently available in Australia, Belgium, Canada, France, Germany, Ireland, Italy, New Zealand, the Netherlands, Singapore, South Africa, Spain, Switzerland, the United Kingdom, and the United States. By entering your phone number and clicking the sign-up button, you agree to receive periodic text messages from MarketBeat at the phone number you submitted, including texts that may be sent using an automatic telephone dialing system. Message and data rates may apply. Message frequency will vary. Messages will consist of stock alerts, news stories, and partner advertisements/offers. Consent is not a condition of the purchase of any goods or services. Text HELP for help/customer support. Unsubscribe at any time by replying "STOP" to any text message that you receive from MarketBeat or by visiting our mailing preferences page. Read our full terms of service and privacy policy.
Skip Chart & View Institutional Buying and Selling Data

NKE Institutional Buying and Selling by Quarter

NIKE Major Shareholders & Ownership History

Reporting DateMajor Shareholder NameShares HeldMarket Value% of PortfolioQuarterly Change in SharesOwnership in CompanyDetails
9/2/2026 Brown Lisle Cummings Inc.20,889$858K0.2%+800.0%0.001%
8/27/2026 Corient Private Wealth LP439,681$18.05M0.0%-18.1%0.030%
8/26/2026 Amundi6,460,398$265.20M0.1%+59.4%0.435%
8/26/2026 HighTower Advisors LLC372,300$15.28M0.0%-81.1%0.025%
8/24/2026 Carlson Financial Inc.18,146$745K0.4%+43.7%0.001%
8/24/2026 California State Teachers Retirement System75,611,801$3.10B0.0%+4,052.9%5.097%
8/23/2026 Studio Investment Management LLC15,613$647K0.1%N/A0.001%
8/23/2026 Washington Trust Advisors Inc.59,965$2.46M0.2%-49.4%0.004%
8/23/2026 Ameritas Advisory Services LLC13,148$540K0.0%-29.9%0.001%
8/23/2026 Wedmont Private Capital7,454$331K0.0%+29.8%0.001%
8/23/2026 HB Wealth Management LLC48,814$2.00M0.0%-10.8%0.003%
8/23/2026 Nilsine Partners LLC47,213$1.94M0.1%+203.1%0.003%
8/23/2026 Saudi Central Bank83,965$3.45M0.0%+90.9%0.006%
8/23/2026 Angeles Wealth Management LLC11,971$496K0.0%-6.2%0.001%
8/22/2026 AlphaGrep UK Ltd21,771$894K0.3%N/A0.001%
8/22/2026 Old Mission Investment Co LLC6,325$262K0.1%N/A0.000%
8/22/2026 Timbuktu Capital Management LLC1,000$41K0.1%N/A0.000%
8/22/2026 Raiffeisen Bank International AG339,874$14.10M0.2%+3.9%0.023%
8/22/2026 NWF Advisory Services Inc.5,308$218K0.0%+17.2%0.000%
8/22/2026 TD Waterhouse Canada Inc.390,183$16.84M0.0%-23.8%0.026%
8/22/2026 Premier Path Wealth Partners LLC14,888$611K0.1%-23.3%0.001%
8/22/2026 Concurrent Investment Advisors LLC165,639$6.80M0.1%+30.8%0.011%
8/22/2026 NEOS Investment Management LLC192,868$7.92M0.0%+11.4%0.013%
8/21/2026 Continuum Advisory LLC599$25K0.0%-87.4%0.000%
8/21/2026 Nykredit A S334,902$13.75M0.0%N/A0.023%
8/21/2026 B. Metzler seel. Sohn & Co. AG174,933$7.18M0.1%-16.6%0.012%
8/21/2026 Pacifica Partners Inc.29,831$1.32M0.4%-2.3%0.002%
8/21/2026 Lone Peak Global Investors LLC363,889$14.94M2.1%+6.1%0.025%
8/21/2026 Harbor Island Capital LLC361,489$14.84M4.0%+48.8%0.024%
8/21/2026 Triumph Capital Management2,178$89K0.0%-22.2%0.000%
8/21/2026 Legacy Financial Advisors Inc.31,638$1.30M0.2%+18.0%0.002%
8/20/2026 Piedmont Capital Management LLC7,363$312K0.2%+8.2%0.000%
8/20/2026 Clifford Swan Investment Counsel LLC162,369$6.67M0.2%-4.9%0.011%
8/20/2026 Rehmann Capital Advisory Group5,984$246K0.0%-4.8%0.000%
8/20/2026 JNBA Financial Advisors5,094$209K0.0%-13.4%0.000%
8/20/2026 Addenda Capital Inc.84,300$3.50M0.1%-65.6%0.006%
8/20/2026 Quantitative Investment Management LLC59,915$2.46M0.3%N/A0.004%
8/20/2026 Sigma Planning Corp16,277$668K0.0%-54.9%0.001%
8/20/2026 Two Sigma Securities LLC23,129$949K0.1%+30.9%0.002%
8/20/2026 Benjamin Edwards Inc.200,827$8.24M0.1%+92.4%0.014%
This looks like plywood. It's not. (Ad)

AI data centers have a power problem nobody likes to talk about. A single rack of computers can now use more electricity than an entire office building. One new chip, which looks more like a piece of plywood than a processor, delivers similar performance on a fraction of the power. Tech investing veteran George Gilder says that efficiency gap could decide who wins the next stage of AI. Gilder has identified three companies positioned around this power breakthrough, calling them the Trillion Dollar Triangle.tc pixel

See the three companies behind this AI power breakthrough now
8/20/2026 Cacti Asset Management LLC348,782$14.32M0.7%+7.7%0.024%
8/20/2026 GTS Securities LLC11,834$486K0.0%+63.3%0.001%
8/20/2026 Flputnam Investment Management Co.6,758$277K0.0%-16.8%0.000%
8/20/2026 Northwestern Mutual Wealth Management Co.163,652$6.72M0.0%-1.1%0.011%
8/20/2026 Private Management Group Inc.6,704$275K0.0%-3.8%0.000%
8/20/2026 Wedbush Securities Inc.113,637$4.67M0.1%+52.4%0.008%
8/20/2026 Hennessy Advisors Inc.149,350$6.13M0.2%-0.4%0.010%
8/20/2026 Sheets Smith Wealth Management33,629$1.38M0.1%-24.0%0.002%
8/20/2026 Cullinan Associates Inc.7,810$321K0.0%-6.1%0.001%
8/20/2026 Hollencrest Capital Management916$38K0.0%-42.5%0.000%
8/20/2026 Greenwood Capital Associates LLC141,643$5.81M0.6%+7.5%0.010%
8/20/2026 Greenleaf Trust144,139$5.92M0.1%+12.7%0.010%
8/19/2026 UBS AM a distinct business unit of UBS ASSET MANAGEMENT AMERICAS LLC6,368,490$261.43M0.0%-8.7%0.429%
8/19/2026 New Mexico Educational Retirement Board59,248$2.43M0.1%+11.5%0.004%
8/19/2026 Royal London Asset Management Ltd.507,236$20.82M0.0%-23.7%0.034%
8/19/2026 Toth Financial Advisory Corp4,265$175K0.0%-70.3%0.000%
8/19/2026 Mufg Securities Americas Inc.36,127$1.48M0.1%+9.6%0.002%
8/19/2026 Van ECK Associates Corp6,257,863$256.89M0.2%+4.8%0.422%
8/19/2026 Ferguson Wellman Capital Management Inc.39,677$1.63M0.0%-93.4%0.003%
8/19/2026 Nissay Asset Management Corp Japan226,947$9.32M0.0%-0.2%0.015%
8/19/2026 BNP Paribas17,424$715K0.0%-10.6%0.001%
8/19/2026 Wellington Management Group LLP22,208,933$911.68M0.2%-42.1%1.497%
8/19/2026 Archer Investment Corp776$32K0.0%-46.5%0.000%
8/18/2026 Beacon Pointe Advisors LLC95,908$3.94M0.0%-23.3%0.006%
8/18/2026 Kimelman & Baird LLC1,968$81K0.0%-99.0%0.000%
8/18/2026 Livforsakringsbolaget Skandia Omsesidigt6,954$285K0.0%-19.6%0.000%
8/18/2026 Rakuten Investment Management Inc.197,355$8.19M0.0%+11.0%0.013%
8/18/2026 RB Capital Management LLC18,098$743K0.1%-53.4%0.001%
8/18/2026 Glenview Trust Co162,198$6.66M0.1%-1.1%0.011%
8/18/2026 North Star Asset Management Inc.40,338$1.66M0.1%-14.3%0.003%
8/18/2026 Empowered Funds LLC191,312$7.85M0.0%+82.3%0.013%
8/18/2026 United Capital Financial Advisors LLC36,134$1.48M0.0%-66.9%0.002%
8/18/2026 Equitable Holdings Inc.58,362$2.40M0.0%-15.0%0.004%
8/18/2026 Centaurus Financial Inc.6,149$252K0.0%-5.4%0.000%
8/18/2026 Formula Growth Ltd.15,000$616K0.2%N/A0.001%
8/18/2026Jefferies Financial Group Inc.160,753$6.60M0.0%+428.1%0.011%
8/18/2026 Public Employees Retirement System of Ohio449,305$18.44M0.1%-4.8%0.030%
8/18/2026 MASTERINVEST Kapitalanlage GmbH55,601$2.28M0.2%+32.7%0.004%
8/17/2026 One68 Global Capital LLC8,500$349K0.7%+112.5%0.001%
8/17/2026 Fayez Sarofim & Co44,777$1.84M0.0%-41.7%0.003%
8/17/2026 Redwood Investment Management LLC17,013$698K0.1%N/A0.001%
8/17/2026 Pure Financial Advisors LLC7,835$322K0.0%+51.3%0.001%
8/17/2026 Transamerica Financial Advisors LLC4,190$173K0.0%+1,282.8%0.000%
8/17/2026 Corient Private Wealth LP486,724$19.98M0.0%-9.3%0.033%
8/17/2026 Pingora Partners LLC1,100$45K0.0%+57.1%0.000%
8/17/2026 Ausdal Financial Partners Inc.18,785$771K0.0%+2.6%0.001%
8/17/2026 Axim Planning & Wealth10,182$418K0.6%+74.2%0.001%
8/17/2026 Bank of America Corp DE10,656,406$437.45M0.0%-24.8%0.718%
8/17/2026 Bontempo Ohly Capital Mgmt LLC76,545$3.14M1.3%+3.2%0.005%
8/14/2026 Jones Financial Companies Lllp48,016$1.97M0.0%N/A0.003%
The ultimate IPO unicorn before Labor Day (Ad)

Anthropic is now valued at over $1 trillion, more than every U.S. airline combined and larger than the U.S. defense budget. Its annualized revenue grew 80x in the first quarter, and an IPO could arrive as early as October. For a limited time, investors can access a report detailing how to explore a pre-IPO stake in Anthropic for $29, a 94% discount off the retail price. The package includes a year of Disruptors and Dominators, monthly stock ideas, and four special reports.tc pixel

Claim the discounted Anthropic pre-IPO report before Monday night's deadline.
8/13/2026 Ally Financial Inc.133,000$5.46M0.7%N/A0.009%
8/13/2026 Pinnacle Holdings LLC9,636$396K0.1%N/A0.001%
8/13/2026 Kiltearn Partners LLP111,171$4.56M1.1%N/A0.007%
8/11/2026 Madison Asset Management LLC82,102$3.37M0.0%N/A0.006%
8/10/2026 Flossbach Von Storch SE11,905,339$488.71M2.2%N/A0.803%
8/8/2026 Wealthfront Advisers LLC55,025$2.26M0.0%-3.0%0.004%
8/8/2026 Main Street Financial Solutions LLC7,566$311K0.0%N/A0.001%
8/8/2026 First National Bank of Omaha46,614$1.93M0.1%-55.8%0.003%
8/8/2026 HS Management Partners LLC81,572$3.35M1.2%-63.8%0.005%
8/8/2026 Equity Investment Corp2,424,640$99.53M1.9%N/A0.163%


NKE Institutional Ownership - Frequently Asked Questions

During the previous two years, 2,442 institutional investors and hedge funds held shares of NIKE. The most heavily invested institutionals were Vanguard Group Inc. ($7.45B), State Street Corp ($3.80B), BlackRock Inc. ($3.36B), Capital World Investors ($3.13B), California State Teachers Retirement System ($3.10B), J. Stern & Co. LLP ($3.06B), and Goldman Sachs Group Inc. ($1.69B).Learn more on NIKE's institutional investors.

64.25% of NIKE's stock is owned by institutional investors. Learn more on NKE's institutional investor holdings.

Of the 1,972 institutional investors that purchased NIKE's stock in the last 24 months, the following investors and hedge funds have bought the highest volume of shares: California State Teachers Retirement System ($73.80M), J. Stern & Co. LLP ($47.96M), Norges Bank ($39.67M), Goldman Sachs Group Inc. ($20.69M), Wellington Management Group LLP ($19.28M), Flossbach Von Storch SE ($17.85M), and Harris Associates L P ($15.03M).

Institutional investors have bought a total of 268,011,386 shares in the last 24 months. This purchase volume represents approximately $15.03B in transactions.

Of the 1,008 institutional investors that sold NIKE's stock in the last 24 months, the following investors and hedge funds have sold the highest volume of shares: Wellington Management Group LLP ($28.11M), Bank of New York Mellon Corp ($11.86M), BlackRock Inc. ($9.98M), Pacer Advisors Inc. ($6.06M), UBS AM a distinct business unit of UBS ASSET MANAGEMENT AMERICAS LLC ($3.67M), Bank of America Corp DE ($3.64M), and HighTower Advisors LLC ($3.19M).

Institutional investors have sold a total of 128,507,294 shares in the last 24 months. This volume of shares sold represents approximately $7.31B in transactions.



Institutional ownership data for NYSE:NKE is compiled from quarterly 13F filings submitted to the U.S. Securities and Exchange Commission (SEC), with the most recent received on 9/2/2026. New 13F filings are added each quarter as they're published.
From Our Partners